sensor_id;sensor_type;location;lat;lon;timestamp;pressure;altitude;pressure_sealevel;temperature;humidity
11124;BME280;5616;42.692;23.312;2023-12-20T00:02:09;95529.44;;;1.85;96.97
11124;BME280;5616;42.692;23.312;2023-12-20T00:04:36;95526.19;;;1.83;96.57
11124;BME280;5616;42.692;23.312;2023-12-20T00:07:03;95522.97;;;1.92;96.75
11124;BME280;5616;42.692;23.312;2023-12-20T00:09:30;95524.78;;;2.01;97.32
11124;BME280;5616;42.692;23.312;2023-12-20T00:11:58;95516.00;;;2.05;96.52
11124;BME280;5616;42.692;23.312;2023-12-20T00:14:25;95508.00;;;1.99;96.54
11124;BME280;5616;42.692;23.312;2023-12-20T00:16:51;95514.16;;;1.96;97.08
11124;BME280;5616;42.692;23.312;2023-12-20T00:19:18;95512.06;;;2.01;96.84
11124;BME280;5616;42.692;23.312;2023-12-20T00:21:45;95504.41;;;2.01;96.02
11124;BME280;5616;42.692;23.312;2023-12-20T00:24:12;95495.72;;;2.04;96.57
11124;BME280;5616;42.692;23.312;2023-12-20T00:26:39;95497.38;;;1.94;97.13
11124;BME280;5616;42.692;23.312;2023-12-20T00:29:07;95498.28;;;1.93;97.37
11124;BME280;5616;42.692;23.312;2023-12-20T00:31:34;95494.47;;;1.98;96.63
11124;BME280;5616;42.692;23.312;2023-12-20T00:34:00;95483.94;;;2.03;96.48
11124;BME280;5616;42.692;23.312;2023-12-20T00:36:27;95486.22;;;2.06;96.44
11124;BME280;5616;42.692;23.312;2023-12-20T00:38:54;95490.47;;;2.16;96.58
11124;BME280;5616;42.692;23.312;2023-12-20T00:41:20;95490.00;;;2.22;95.17
11124;BME280;5616;42.692;23.312;2023-12-20T00:43:47;95486.19;;;2.28;95.77
11124;BME280;5616;42.692;23.312;2023-12-20T00:46:15;95478.06;;;2.34;94.41
11124;BME280;5616;42.692;23.312;2023-12-20T00:48:42;95471.47;;;2.31;94.63
11124;BME280;5616;42.692;23.312;2023-12-20T00:51:13;95473.88;;;2.33;95.09
11124;BME280;5616;42.692;23.312;2023-12-20T00:53:40;95473.31;;;2.29;94.25
11124;BME280;5616;42.692;23.312;2023-12-20T00:56:06;95469.25;;;2.27;95.82
11124;BME280;5616;42.692;23.312;2023-12-20T00:58:33;95463.63;;;2.23;95.89
11124;BME280;5616;42.692;23.312;2023-12-20T01:01:02;95472.78;;;2.15;95.88
11124;BME280;5616;42.692;23.312;2023-12-20T01:03:30;95463.06;;;2.09;95.82
11124;BME280;5616;42.692;23.312;2023-12-20T01:05:57;95464.25;;;2.05;96.23
11124;BME280;5616;42.692;23.312;2023-12-20T01:08:23;95456.16;;;2.00;95.93
11124;BME280;5616;42.692;23.312;2023-12-20T01:10:51;95452.16;;;1.75;96.96
11124;BME280;5616;42.692;23.312;2023-12-20T01:13:18;95451.44;;;1.84;96.35
11124;BME280;5616;42.692;23.312;2023-12-20T01:15:45;95447.75;;;1.77;96.32
11124;BME280;5616;42.692;23.312;2023-12-20T01:18:13;95446.09;;;1.87;96.76
11124;BME280;5616;42.692;23.312;2023-12-20T01:20:41;95447.06;;;1.75;97.31
11124;BME280;5616;42.692;23.312;2023-12-20T01:23:08;95439.06;;;1.79;97.07
11124;BME280;5616;42.692;23.312;2023-12-20T01:25:34;95434.94;;;1.67;96.47
11124;BME280;5616;42.692;23.312;2023-12-20T01:28:01;95434.25;;;1.65;97.14
11124;BME280;5616;42.692;23.312;2023-12-20T01:30:28;95431.19;;;1.71;95.75
11124;BME280;5616;42.692;23.312;2023-12-20T01:32:55;95424.44;;;1.50;97.17
11124;BME280;5616;42.692;23.312;2023-12-20T01:35:22;95421.16;;;1.59;96.19
11124;BME280;5616;42.692;23.312;2023-12-20T01:37:50;95425.22;;;1.61;96.20
11124;BME280;5616;42.692;23.312;2023-12-20T01:40:16;95418.84;;;1.67;96.29
11124;BME280;5616;42.692;23.312;2023-12-20T01:42:43;95410.84;;;1.71;95.80
11124;BME280;5616;42.692;23.312;2023-12-20T01:45:10;95408.94;;;1.53;95.98
11124;BME280;5616;42.692;23.312;2023-12-20T01:47:37;95403.34;;;1.59;96.41
11124;BME280;5616;42.692;23.312;2023-12-20T01:50:05;95400.03;;;1.36;96.45
11124;BME280;5616;42.692;23.312;2023-12-20T01:52:34;95389.16;;;1.45;97.30
11124;BME280;5616;42.692;23.312;2023-12-20T01:55:03;95387.88;;;1.51;96.44
11124;BME280;5616;42.692;23.312;2023-12-20T01:57:36;95399.34;;;1.34;96.65
11124;BME280;5616;42.692;23.312;2023-12-20T02:00:04;95394.81;;;1.38;96.84
11124;BME280;5616;42.692;23.312;2023-12-20T02:02:31;95400.41;;;1.32;97.11
11124;BME280;5616;42.692;23.312;2023-12-20T02:04:58;95390.31;;;1.30;97.51
11124;BME280;5616;42.692;23.312;2023-12-20T02:07:25;95390.91;;;1.22;96.88
11124;BME280;5616;42.692;23.312;2023-12-20T02:09:53;95377.25;;;1.35;96.22
11124;BME280;5616;42.692;23.312;2023-12-20T02:12:21;95391.81;;;1.33;96.25
11124;BME280;5616;42.692;23.312;2023-12-20T02:14:48;95384.66;;;1.38;96.82
11124;BME280;5616;42.692;23.312;2023-12-20T02:17:15;95377.38;;;1.33;96.55
11124;BME280;5616;42.692;23.312;2023-12-20T02:19:43;95366.97;;;1.36;96.45
11124;BME280;5616;42.692;23.312;2023-12-20T02:22:11;95370.88;;;1.40;96.79
11124;BME280;5616;42.692;23.312;2023-12-20T02:24:38;95350.22;;;1.34;95.88
11124;BME280;5616;42.692;23.312;2023-12-20T02:27:07;95363.16;;;1.42;96.30
11124;BME280;5616;42.692;23.312;2023-12-20T02:29:34;95362.22;;;1.43;95.44
11124;BME280;5616;42.692;23.312;2023-12-20T02:32:01;95355.97;;;1.47;95.32
11124;BME280;5616;42.692;23.312;2023-12-20T02:34:28;95358.28;;;1.50;95.16
11124;BME280;5616;42.692;23.312;2023-12-20T02:36:55;95353.91;;;1.30;95.61
11124;BME280;5616;42.692;23.312;2023-12-20T02:39:23;95351.50;;;1.28;95.69
11124;BME280;5616;42.692;23.312;2023-12-20T02:41:49;95345.72;;;1.26;95.59
11124;BME280;5616;42.692;23.312;2023-12-20T02:44:16;95335.31;;;1.18;96.49
11124;BME280;5616;42.692;23.312;2023-12-20T02:46:43;95343.88;;;1.28;96.01
11124;BME280;5616;42.692;23.312;2023-12-20T02:49:10;95336.38;;;1.04;96.39
11124;BME280;5616;42.692;23.312;2023-12-20T02:51:36;95339.47;;;1.19;96.18
11124;BME280;5616;42.692;23.312;2023-12-20T02:54:04;95338.91;;;1.04;94.77
11124;BME280;5616;42.692;23.312;2023-12-20T02:56:33;95343.78;;;1.07;95.24
11124;BME280;5616;42.692;23.312;2023-12-20T02:59:00;95347.69;;;1.11;94.65
11124;BME280;5616;42.692;23.312;2023-12-20T03:01:27;95346.66;;;1.03;94.99
11124;BME280;5616;42.692;23.312;2023-12-20T03:03:53;95343.78;;;1.07;94.29
11124;BME280;5616;42.692;23.312;2023-12-20T03:06:20;95346.09;;;0.99;94.56
11124;BME280;5616;42.692;23.312;2023-12-20T03:08:47;95337.28;;;1.03;94.80
11124;BME280;5616;42.692;23.312;2023-12-20T03:11:13;95346.09;;;0.99;95.13
11124;BME280;5616;42.692;23.312;2023-12-20T03:13:41;95348.03;;;0.96;95.73
11124;BME280;5616;42.692;23.312;2023-12-20T03:16:08;95343.09;;;0.94;95.24
11124;BME280;5616;42.692;23.312;2023-12-20T03:18:35;95347.47;;;0.92;96.19
11124;BME280;5616;42.692;23.312;2023-12-20T03:21:02;95338.00;;;0.94;96.40
11124;BME280;5616;42.692;23.312;2023-12-20T03:23:29;95337.19;;;0.94;96.32
11124;BME280;5616;42.692;23.312;2023-12-20T03:25:57;95336.41;;;0.71;96.89
11124;BME280;5616;42.692;23.312;2023-12-20T03:28:24;95332.00;;;0.73;97.45
11124;BME280;5616;42.692;23.312;2023-12-20T03:30:52;95326.56;;;0.78;96.98
11124;BME280;5616;42.692;23.312;2023-12-20T03:33:19;95325.16;;;0.85;97.28
11124;BME280;5616;42.692;23.312;2023-12-20T03:35:46;95324.84;;;0.78;97.39
11124;BME280;5616;42.692;23.312;2023-12-20T03:38:13;95325.19;;;0.74;97.08
11124;BME280;5616;42.692;23.312;2023-12-20T03:40:39;95328.75;;;0.60;97.48
11124;BME280;5616;42.692;23.312;2023-12-20T03:43:06;95326.31;;;0.70;98.04
11124;BME280;5616;42.692;23.312;2023-12-20T03:45:33;95321.94;;;0.60;97.81
11124;BME280;5616;42.692;23.312;2023-12-20T03:48:01;95317.78;;;0.71;97.93
11124;BME280;5616;42.692;23.312;2023-12-20T03:50:28;95318.72;;;0.70;97.72
11124;BME280;5616;42.692;23.312;2023-12-20T03:52:55;95323.22;;;0.77;97.96
11124;BME280;5616;42.692;23.312;2023-12-20T03:55:22;95315.81;;;0.74;97.43
11124;BME280;5616;42.692;23.312;2023-12-20T03:57:48;95316.53;;;0.65;97.92
11124;BME280;5616;42.692;23.312;2023-12-20T04:00:15;95322.50;;;0.64;97.92
11124;BME280;5616;42.692;23.312;2023-12-20T04:02:42;95295.28;;;0.55;97.88
11124;BME280;5616;42.692;23.312;2023-12-20T04:05:10;95306.81;;;0.59;97.99
11124;BME280;5616;42.692;23.312;2023-12-20T04:07:38;95302.63;;;0.58;98.77
11124;BME280;5616;42.692;23.312;2023-12-20T04:10:05;95304.94;;;0.61;98.24
11124;BME280;5616;42.692;23.312;2023-12-20T04:12:32;95303.69;;;0.55;98.34
11124;BME280;5616;42.692;23.312;2023-12-20T04:14:59;95293.88;;;0.51;98.48
11124;BME280;5616;42.692;23.312;2023-12-20T04:17:26;95296.41;;;0.40;98.65
11124;BME280;5616;42.692;23.312;2023-12-20T04:19:52;95296.16;;;0.21;99.21
11124;BME280;5616;42.692;23.312;2023-12-20T04:22:21;95289.44;;;0.20;99.72
11124;BME280;5616;42.692;23.312;2023-12-20T04:24:47;95289.56;;;0.29;100.00
11124;BME280;5616;42.692;23.312;2023-12-20T04:27:14;95284.28;;;0.43;99.85
11124;BME280;5616;42.692;23.312;2023-12-20T04:29:41;95287.28;;;0.48;99.23
11124;BME280;5616;42.692;23.312;2023-12-20T04:32:08;95277.47;;;0.44;99.61
11124;BME280;5616;42.692;23.312;2023-12-20T04:34:34;95274.00;;;0.56;99.53
11124;BME280;5616;42.692;23.312;2023-12-20T04:37:01;95275.63;;;0.68;98.50
11124;BME280;5616;42.692;23.312;2023-12-20T04:39:29;95277.38;;;0.56;98.51
11124;BME280;5616;42.692;23.312;2023-12-20T04:41:56;95269.84;;;0.66;97.89
11124;BME280;5616;42.692;23.312;2023-12-20T04:44:23;95269.38;;;0.61;98.01
11124;BME280;5616;42.692;23.312;2023-12-20T04:46:50;95277.59;;;0.65;97.91
11124;BME280;5616;42.692;23.312;2023-12-20T04:49:16;95270.19;;;0.50;97.80
11124;BME280;5616;42.692;23.312;2023-12-20T04:51:43;95264.09;;;0.42;98.44
11124;BME280;5616;42.692;23.312;2023-12-20T04:54:10;95264.88;;;0.42;98.21
11124;BME280;5616;42.692;23.312;2023-12-20T04:56:38;95269.63;;;0.47;98.72
11124;BME280;5616;42.692;23.312;2023-12-20T04:59:05;95268.13;;;0.44;98.58
11124;BME280;5616;42.692;23.312;2023-12-20T05:01:32;95264.44;;;0.48;98.24
11124;BME280;5616;42.692;23.312;2023-12-20T05:03:59;95265.91;;;0.40;98.53
11124;BME280;5616;42.692;23.312;2023-12-20T05:06:25;95264.44;;;0.48;98.42
11124;BME280;5616;42.692;23.312;2023-12-20T05:08:52;95261.53;;;0.53;97.71
11124;BME280;5616;42.692;23.312;2023-12-20T05:11:19;95259.47;;;0.47;97.49
11124;BME280;5616;42.692;23.312;2023-12-20T05:13:47;95261.78;;;0.39;97.69
11124;BME280;5616;42.692;23.312;2023-12-20T05:16:14;95261.09;;;0.37;97.93
11124;BME280;5616;42.692;23.312;2023-12-20T05:18:43;95258.44;;;0.38;98.35
11124;BME280;5616;42.692;23.312;2023-12-20T05:21:09;95254.47;;;0.34;98.24
11124;BME280;5616;42.692;23.312;2023-12-20T05:23:36;95258.97;;;0.20;99.14
11124;BME280;5616;42.692;23.312;2023-12-20T05:26:03;95248.63;;;0.34;98.95
11124;BME280;5616;42.692;23.312;2023-12-20T05:28:30;95241.34;;;0.40;98.68
11124;BME280;5616;42.692;23.312;2023-12-20T05:30:58;95240.28;;;0.43;97.62
11124;BME280;5616;42.692;23.312;2023-12-20T05:33:24;95241.25;;;0.42;97.80
11124;BME280;5616;42.692;23.312;2023-12-20T05:35:51;95238.09;;;0.38;97.44
11124;BME280;5616;42.692;23.312;2023-12-20T05:38:18;95240.31;;;0.21;97.93
11124;BME280;5616;42.692;23.312;2023-12-20T05:40:45;95240.09;;;0.24;98.48
11124;BME280;5616;42.692;23.312;2023-12-20T05:43:11;95240.75;;;0.26;98.23
11124;BME280;5616;42.692;23.312;2023-12-20T05:45:38;95234.97;;;0.35;98.39
11124;BME280;5616;42.692;23.312;2023-12-20T05:48:06;95236.84;;;0.33;98.13
11124;BME280;5616;42.692;23.312;2023-12-20T05:50:33;95232.44;;;0.35;97.70
11124;BME280;5616;42.692;23.312;2023-12-20T05:53:01;95234.44;;;0.31;97.30
11124;BME280;5616;42.692;23.312;2023-12-20T05:55:27;95221.59;;;0.22;97.49
11124;BME280;5616;42.692;23.312;2023-12-20T05:57:54;95227.94;;;0.27;97.56
11124;BME280;5616;42.692;23.312;2023-12-20T06:00:21;95226.81;;;0.31;97.71
11124;BME280;5616;42.692;23.312;2023-12-20T06:02:47;95218.84;;;0.36;98.26
11124;BME280;5616;42.692;23.312;2023-12-20T06:05:15;95222.28;;;0.35;97.99
11124;BME280;5616;42.692;23.312;2023-12-20T06:07:42;95221.13;;;0.28;98.53
11124;BME280;5616;42.692;23.312;2023-12-20T06:10:10;95212.63;;;0.29;98.31
11124;BME280;5616;42.692;23.312;2023-12-20T06:12:37;95212.34;;;0.32;98.29
11124;BME280;5616;42.692;23.312;2023-12-20T06:15:04;95217.66;;;0.40;98.59
11124;BME280;5616;42.692;23.312;2023-12-20T06:17:31;95219.97;;;0.43;98.19
11124;BME280;5616;42.692;23.312;2023-12-20T06:19:58;95224.72;;;0.47;97.78
11124;BME280;5616;42.692;23.312;2023-12-20T06:22:26;95225.28;;;0.51;97.32
11124;BME280;5616;42.692;23.312;2023-12-20T06:24:53;95230.50;;;0.49;97.54
11124;BME280;5616;42.692;23.312;2023-12-20T06:27:20;95223.56;;;0.51;98.03
11124;BME280;5616;42.692;23.312;2023-12-20T06:29:46;95222.88;;;0.38;98.34
11124;BME280;5616;42.692;23.312;2023-12-20T06:32:13;95223.44;;;0.31;98.64
11124;BME280;5616;42.692;23.312;2023-12-20T06:34:40;95221.00;;;0.29;98.99
11124;BME280;5616;42.692;23.312;2023-12-20T06:37:06;95224.50;;;0.28;98.96
11124;BME280;5616;42.692;23.312;2023-12-20T06:39:35;95216.75;;;0.19;98.46
11124;BME280;5616;42.692;23.312;2023-12-20T06:42:02;95223.31;;;0.21;99.79
11124;BME280;5616;42.692;23.312;2023-12-20T06:44:29;95203.13;;;0.42;99.38
11124;BME280;5616;42.692;23.312;2023-12-20T06:46:57;95215.59;;;0.45;99.03
11124;BME280;5616;42.692;23.312;2023-12-20T06:49:23;95209.00;;;0.53;99.35
11124;BME280;5616;42.692;23.312;2023-12-20T06:51:50;95201.50;;;0.63;99.06
11124;BME280;5616;42.692;23.312;2023-12-20T06:54:17;95204.94;;;0.73;98.69
11124;BME280;5616;42.692;23.312;2023-12-20T06:56:45;95203.31;;;0.83;98.07
11124;BME280;5616;42.692;23.312;2023-12-20T06:59:12;95202.94;;;0.88;96.62
11124;BME280;5616;42.692;23.312;2023-12-20T07:01:38;95193.34;;;0.91;96.72
11124;BME280;5616;42.692;23.312;2023-12-20T07:04:05;95190.00;;;0.91;96.72
11124;BME280;5616;42.692;23.312;2023-12-20T07:06:32;95183.06;;;0.93;97.36
11124;BME280;5616;42.692;23.312;2023-12-20T07:08:59;95194.84;;;0.94;97.21
11124;BME280;5616;42.692;23.312;2023-12-20T07:11:26;95191.13;;;0.98;96.76
11124;BME280;5616;42.692;23.312;2023-12-20T07:13:54;95191.56;;;1.03;96.65
11124;BME280;5616;42.692;23.312;2023-12-20T07:16:21;95192.59;;;1.11;96.40
11124;BME280;5616;42.692;23.312;2023-12-20T07:18:48;95190.66;;;1.04;96.89
11124;BME280;5616;42.692;23.312;2023-12-20T07:21:14;95181.97;;;1.06;96.89
11124;BME280;5616;42.692;23.312;2023-12-20T07:23:41;95186.78;;;1.20;97.01
11124;BME280;5616;42.692;23.312;2023-12-20T07:26:08;95175.66;;;1.21;96.75
11124;BME280;5616;42.692;23.312;2023-12-20T07:28:35;95177.56;;;1.08;96.44
11124;BME280;5616;42.692;23.312;2023-12-20T07:31:04;95168.41;;;1.17;96.82
11124;BME280;5616;42.692;23.312;2023-12-20T07:33:30;95168.69;;;1.35;96.96
11124;BME280;5616;42.692;23.312;2023-12-20T07:35:57;95166.31;;;1.43;96.58
11124;BME280;5616;42.692;23.312;2023-12-20T07:38:26;95170.94;;;1.49;96.62
11124;BME280;5616;42.692;23.312;2023-12-20T07:40:52;95174.69;;;1.13;96.57
11124;BME280;5616;42.692;23.312;2023-12-20T07:43:19;95167.13;;;1.43;96.18
11124;BME280;5616;42.692;23.312;2023-12-20T07:45:47;95171.78;;;1.59;95.45
11124;BME280;5616;42.692;23.312;2023-12-20T07:48:15;95174.28;;;1.70;95.29
11124;BME280;5616;42.692;23.312;2023-12-20T07:50:42;95184.00;;;1.85;94.14
11124;BME280;5616;42.692;23.312;2023-12-20T07:53:08;95158.88;;;1.92;94.37
11124;BME280;5616;42.692;23.312;2023-12-20T07:55:35;95156.88;;;1.96;93.87
11124;BME280;5616;42.692;23.312;2023-12-20T07:58:02;95165.44;;;1.95;93.75
11124;BME280;5616;42.692;23.312;2023-12-20T08:00:30;95162.28;;;2.02;93.35
11124;BME280;5616;42.692;23.312;2023-12-20T08:02:57;95164.53;;;1.54;93.91
11124;BME280;5616;42.692;23.312;2023-12-20T08:05:25;95163.50;;;1.57;93.89
11124;BME280;5616;42.692;23.312;2023-12-20T08:07:52;95157.38;;;1.69;95.39
11124;BME280;5616;42.692;23.312;2023-12-20T08:10:19;95157.72;;;1.75;94.94
11124;BME280;5616;42.692;23.312;2023-12-20T08:12:46;95149.44;;;1.83;95.35
11124;BME280;5616;42.692;23.312;2023-12-20T08:15:13;95149.56;;;1.61;95.21
11124;BME280;5616;42.692;23.312;2023-12-20T08:17:39;95143.09;;;1.47;95.41
11124;BME280;5616;42.692;23.312;2023-12-20T08:20:07;95143.69;;;1.60;94.73
11124;BME280;5616;42.692;23.312;2023-12-20T08:22:35;95143.25;;;1.55;95.29
11124;BME280;5616;42.692;23.312;2023-12-20T08:25:03;95143.81;;;1.59;96.23
11124;BME280;5616;42.692;23.312;2023-12-20T08:27:29;95142.47;;;1.85;96.39
11124;BME280;5616;42.692;23.312;2023-12-20T08:29:57;95130.25;;;2.09;94.72
11124;BME280;5616;42.692;23.312;2023-12-20T08:32:25;95129.94;;;2.33;93.51
11124;BME280;5616;42.692;23.312;2023-12-20T08:34:52;95133.47;;;2.51;91.35
11124;BME280;5616;42.692;23.312;2023-12-20T08:37:19;95119.66;;;2.54;92.19
11124;BME280;5616;42.692;23.312;2023-12-20T08:39:47;95117.13;;;2.54;91.25
11124;BME280;5616;42.692;23.312;2023-12-20T08:42:13;95125.44;;;2.56;90.95
11124;BME280;5616;42.692;23.312;2023-12-20T08:44:40;95117.25;;;2.52;90.36
11124;BME280;5616;42.692;23.312;2023-12-20T08:47:07;95106.81;;;2.55;90.39
11124;BME280;5616;42.692;23.312;2023-12-20T08:49:34;95108.00;;;2.51;90.97
11124;BME280;5616;42.692;23.312;2023-12-20T08:52:00;95105.44;;;2.51;91.02
11124;BME280;5616;42.692;23.312;2023-12-20T08:54:27;95102.31;;;2.38;91.70
11124;BME280;5616;42.692;23.312;2023-12-20T08:56:55;95106.00;;;2.05;91.89
11124;BME280;5616;42.692;23.312;2023-12-20T08:59:22;95099.88;;;2.17;92.58
11124;BME280;5616;42.692;23.312;2023-12-20T09:01:48;95084.34;;;2.30;91.69
11124;BME280;5616;42.692;23.312;2023-12-20T09:04:19;95082.09;;;2.36;91.96
11124;BME280;5616;42.692;23.312;2023-12-20T09:06:46;95076.44;;;2.42;91.99
11124;BME280;5616;42.692;23.312;2023-12-20T09:09:13;95065.28;;;2.15;92.21
11124;BME280;5616;42.692;23.312;2023-12-20T09:11:40;95062.94;;;2.42;92.39
11124;BME280;5616;42.692;23.312;2023-12-20T09:14:08;95049.66;;;2.67;91.16
11124;BME280;5616;42.692;23.312;2023-12-20T09:16:35;95049.94;;;2.83;89.80
11124;BME280;5616;42.692;23.312;2023-12-20T09:19:02;95045.66;;;2.84;89.36
11124;BME280;5616;42.692;23.312;2023-12-20T09:21:29;95027.91;;;2.82;88.28
11124;BME280;5616;42.692;23.312;2023-12-20T09:23:55;95025.94;;;2.76;88.96
11124;BME280;5616;42.692;23.312;2023-12-20T09:26:22;95015.31;;;3.00;89.93
11124;BME280;5616;42.692;23.312;2023-12-20T09:28:49;95011.41;;;2.96;89.13
11124;BME280;5616;42.692;23.312;2023-12-20T09:31:17;95012.47;;;3.13;88.53
11124;BME280;5616;42.692;23.312;2023-12-20T09:33:43;95006.53;;;3.22;87.30
11124;BME280;5616;42.692;23.312;2023-12-20T09:36:10;95002.50;;;3.29;87.99
11124;BME280;5616;42.692;23.312;2023-12-20T09:38:37;94998.28;;;3.37;87.40
11124;BME280;5616;42.692;23.312;2023-12-20T09:41:03;94990.47;;;3.48;86.26
11124;BME280;5616;42.692;23.312;2023-12-20T09:43:33;94983.06;;;3.55;85.71
11124;BME280;5616;42.692;23.312;2023-12-20T09:46:05;94979.53;;;3.65;85.12
11124;BME280;5616;42.692;23.312;2023-12-20T09:48:34;94976.53;;;3.70;84.45
11124;BME280;5616;42.692;23.312;2023-12-20T09:51:03;94970.25;;;3.64;84.28
11124;BME280;5616;42.692;23.312;2023-12-20T09:53:30;94970.88;;;3.76;85.32
11124;BME280;5616;42.692;23.312;2023-12-20T09:55:59;94975.53;;;3.81;84.27
11124;BME280;5616;42.692;23.312;2023-12-20T09:58:26;94962.72;;;3.90;84.24
11124;BME280;5616;42.692;23.312;2023-12-20T10:00:54;94962.31;;;3.95;84.58
11124;BME280;5616;42.692;23.312;2023-12-20T10:03:24;94962.00;;;3.98;84.18
11124;BME280;5616;42.692;23.312;2023-12-20T10:05:54;94964.34;;;4.09;84.14
11124;BME280;5616;42.692;23.312;2023-12-20T10:08:24;94958.41;;;4.18;83.66
11124;BME280;5616;42.692;23.312;2023-12-20T10:10:51;94937.38;;;4.24;83.16
11124;BME280;5616;42.692;23.312;2023-12-20T10:13:18;94945.63;;;4.36;83.60
11124;BME280;5616;42.692;23.312;2023-12-20T10:15:45;94941.16;;;4.38;82.81
11124;BME280;5616;42.692;23.312;2023-12-20T10:18:12;94937.81;;;4.37;83.52
11124;BME280;5616;42.692;23.312;2023-12-20T10:20:40;94927.34;;;4.30;83.42
11124;BME280;5616;42.692;23.312;2023-12-20T10:23:08;94918.38;;;4.09;83.95
11124;BME280;5616;42.692;23.312;2023-12-20T10:25:35;94925.19;;;4.00;83.67
11124;BME280;5616;42.692;23.312;2023-12-20T10:28:13;94918.66;;;4.06;84.36
11124;BME280;5616;42.692;23.312;2023-12-20T10:30:40;94901.38;;;4.17;83.75
11124;BME280;5616;42.692;23.312;2023-12-20T10:33:08;94910.22;;;4.23;84.06
11124;BME280;5616;42.692;23.312;2023-12-20T10:35:35;94899.69;;;4.26;83.51
11124;BME280;5616;42.692;23.312;2023-12-20T10:38:04;94894.88;;;4.23;84.11
11124;BME280;5616;42.692;23.312;2023-12-20T10:40:34;94894.66;;;4.16;84.00
11124;BME280;5616;42.692;23.312;2023-12-20T10:43:02;94894.50;;;4.18;84.01
11124;BME280;5616;42.692;23.312;2023-12-20T10:45:29;94879.25;;;4.26;84.47
11124;BME280;5616;42.692;23.312;2023-12-20T10:47:56;94876.06;;;4.24;83.86
11124;BME280;5616;42.692;23.312;2023-12-20T10:50:24;94869.16;;;4.24;83.58
11124;BME280;5616;42.692;23.312;2023-12-20T10:52:54;94861.72;;;4.31;83.84
11124;BME280;5616;42.692;23.312;2023-12-20T10:55:21;94870.03;;;4.33;82.92
11124;BME280;5616;42.692;23.312;2023-12-20T10:57:49;94861.06;;;4.29;82.84
11124;BME280;5616;42.692;23.312;2023-12-20T11:00:18;94857.03;;;4.44;83.39
11124;BME280;5616;42.692;23.312;2023-12-20T11:02:44;94848.94;;;4.31;82.72
11124;BME280;5616;42.692;23.312;2023-12-20T11:05:19;94844.69;;;4.40;83.12
11124;BME280;5616;42.692;23.312;2023-12-20T11:07:52;94838.13;;;4.37;83.69
11124;BME280;5616;42.692;23.312;2023-12-20T11:10:26;94830.66;;;4.44;84.16
11124;BME280;5616;42.692;23.312;2023-12-20T11:13:03;94835.72;;;4.36;83.80
11124;BME280;5616;42.692;23.312;2023-12-20T11:15:35;94830.69;;;4.26;84.04
11124;BME280;5616;42.692;23.312;2023-12-20T11:18:04;94830.06;;;4.24;84.09
11124;BME280;5616;42.692;23.312;2023-12-20T11:20:38;94820.06;;;3.95;85.86
11124;BME280;5616;42.692;23.312;2023-12-20T11:23:06;94822.59;;;3.95;85.35
11124;BME280;5616;42.692;23.312;2023-12-20T11:25:47;94804.25;;;3.92;86.78
11124;BME280;5616;42.692;23.312;2023-12-20T11:28:20;94801.63;;;3.84;86.70
11124;BME280;5616;42.692;23.312;2023-12-20T11:30:49;94796.81;;;3.81;88.00
11124;BME280;5616;42.692;23.312;2023-12-20T11:33:21;94793.31;;;3.82;87.61
11124;BME280;5616;42.692;23.312;2023-12-20T11:35:48;94784.25;;;3.69;87.83
11124;BME280;5616;42.692;23.312;2023-12-20T11:38:15;94780.97;;;3.77;88.49
11124;BME280;5616;42.692;23.312;2023-12-20T11:40:43;94773.03;;;3.62;88.16
11124;BME280;5616;42.692;23.312;2023-12-20T11:43:10;94774.78;;;3.62;89.12
11124;BME280;5616;42.692;23.312;2023-12-20T11:45:49;94767.03;;;3.71;89.26
11124;BME280;5616;42.692;23.312;2023-12-20T11:48:17;94757.19;;;3.77;89.84
11124;BME280;5616;42.692;23.312;2023-12-20T11:50:45;94758.13;;;3.76;89.40
11124;BME280;5616;42.692;23.312;2023-12-20T11:53:11;94756.47;;;3.84;90.16
11124;BME280;5616;42.692;23.312;2023-12-20T11:55:38;94732.91;;;3.98;89.21
11124;BME280;5616;42.692;23.312;2023-12-20T11:58:05;94735.41;;;4.08;88.65
11124;BME280;5616;42.692;23.312;2023-12-20T12:00:32;94726.00;;;4.16;88.73
11124;BME280;5616;42.692;23.312;2023-12-20T12:03:00;94727.34;;;4.20;88.88
11124;BME280;5616;42.692;23.312;2023-12-20T12:05:28;94720.06;;;4.33;88.08
11124;BME280;5616;42.692;23.312;2023-12-20T12:07:59;94705.97;;;4.29;88.25
11124;BME280;5616;42.692;23.312;2023-12-20T12:10:26;94712.78;;;4.47;88.09
11124;BME280;5616;42.692;23.312;2023-12-20T12:12:53;94701.34;;;4.67;87.12
11124;BME280;5616;42.692;23.312;2023-12-20T12:15:21;94699.66;;;4.83;86.36
11124;BME280;5616;42.692;23.312;2023-12-20T12:17:53;94695.03;;;4.79;86.71
11124;BME280;5616;42.692;23.312;2023-12-20T12:20:22;94690.41;;;4.90;87.04
11124;BME280;5616;42.692;23.312;2023-12-20T12:22:58;94689.16;;;5.03;85.96
11124;BME280;5616;42.692;23.312;2023-12-20T12:25:25;94676.88;;;5.14;85.61
11124;BME280;5616;42.692;23.312;2023-12-20T12:27:52;94696.19;;;5.01;85.56
11124;BME280;5616;42.692;23.312;2023-12-20T12:30:19;94685.66;;;5.12;85.26
11124;BME280;5616;42.692;23.312;2023-12-20T12:32:46;94686.28;;;5.14;84.77
11124;BME280;5616;42.692;23.312;2023-12-20T12:35:13;94690.16;;;5.18;84.84
11124;BME280;5616;42.692;23.312;2023-12-20T12:37:42;94690.13;;;5.02;85.22
11124;BME280;5616;42.692;23.312;2023-12-20T12:40:10;94674.59;;;4.95;85.71
11124;BME280;5616;42.692;23.312;2023-12-20T12:42:37;94694.09;;;4.96;85.96
11124;BME280;5616;42.692;23.312;2023-12-20T12:45:05;94675.72;;;5.01;85.96
11124;BME280;5616;42.692;23.312;2023-12-20T12:47:32;94679.69;;;4.87;87.15
11124;BME280;5616;42.692;23.312;2023-12-20T12:49:59;94672.50;;;4.90;86.34
11124;BME280;5616;42.692;23.312;2023-12-20T12:52:26;94667.56;;;4.97;86.33
11124;BME280;5616;42.692;23.312;2023-12-20T12:54:54;94677.28;;;4.85;87.20
11124;BME280;5616;42.692;23.312;2023-12-20T12:57:21;94664.00;;;4.90;86.99
11124;BME280;5616;42.692;23.312;2023-12-20T12:59:47;94664.63;;;4.76;87.39
11124;BME280;5616;42.692;23.312;2023-12-20T13:02:15;94665.75;;;4.73;87.18
11124;BME280;5616;42.692;23.312;2023-12-20T13:04:42;94673.88;;;4.69;87.40
11124;BME280;5616;42.692;23.312;2023-12-20T13:07:09;94672.75;;;4.63;87.59
11124;BME280;5616;42.692;23.312;2023-12-20T13:09:37;94665.41;;;4.68;87.54
11124;BME280;5616;42.692;23.312;2023-12-20T13:12:06;94656.31;;;4.66;87.84